Time;durP1;ratioP1;P1;durP2;ratioP2;P2;SDS_P1;SDS_P2;PMS_P1;PMS_P2;Temp;Humidity;BMP_temperature;BMP_pressure;BME280_temperature;BME280_humidity;BME280_pressure;Samples;Min_cycle;Max_cycle;Signal;HPM_P1;HPM_P2
2022/07/10 00:02:02;;;;;;;15.63;11.23;;;;;;;16.31;81.17;99467.13;4983174;28;20049;-82
2022/07/10 00:04:29;;;;;;;16.30;10.98;;;;;;;16.34;81.37;99486.22;4973998;28;20042;-77
2022/07/10 00:06:55;;;;;;;16.67;11.85;;;;;;;16.36;81.57;99481.78;4994617;28;20050;-79
2022/07/10 00:09:22;;;;;;;18.35;10.55;;;;;;;16.37;81.66;99491.38;4988062;28;20552;-81
2022/07/10 00:11:48;;;;;;;13.60;9.65;;;;;;;16.29;81.79;99484.69;4984143;28;20042;-80
2022/07/10 00:14:14;;;;;;;14.70;11.45;;;;;;;16.39;82.36;99497.41;4990076;28;20458;-80
2022/07/10 00:16:41;;;;;;;23.67;12.38;;;;;;;16.48;82.24;99498.84;4986403;28;20513;-81
2022/07/10 00:19:07;;;;;;;18.48;11.65;;;;;;;16.51;82.39;99500.50;4985681;28;20042;-79
2022/07/10 00:21:33;;;;;;;18.40;11.43;;;;;;;16.45;82.58;99491.06;4984144;28;20335;-81
2022/07/10 00:23:59;;;;;;;20.17;12.55;;;;;;;16.42;82.54;99492.06;4972839;28;20038;-81
2022/07/10 00:26:26;;;;;;;26.10;15.63;;;;;;;16.49;82.67;99490.03;4977082;28;20096;-78
2022/07/10 00:28:52;;;;;;;17.42;12.25;;;;;;;16.57;82.99;99495.00;4971960;28;20045;-80
2022/07/10 00:31:19;;;;;;;21.45;13.40;;;;;;;16.55;82.46;99487.19;4983824;28;20058;-80
2022/07/10 00:33:48;;;;;;;13.27;9.85;;;;;;;16.55;83.08;99492.44;4989826;28;20038;-81
2022/07/10 00:36:15;;;;;;;17.98;10.77;;;;;;;16.51;83.13;99471.63;4987162;28;20383;-79
2022/07/10 00:38:42;;;;;;;23.30;13.07;;;;;;;16.50;83.05;99464.66;4982816;28;20425;-80
2022/07/10 00:41:08;;;;;;;21.40;13.52;;;;;;;16.60;83.31;99462.53;4988876;28;20045;-80
2022/07/10 00:43:53;;;;;;;17.48;12.50;;;;;;;16.74;83.32;99475.97;4973889;28;20042;-79
2022/07/10 00:46:22;;;;;;;17.23;10.73;;;;;;;16.77;83.14;99470.59;4986016;28;20558;-82
2022/07/10 00:48:49;;;;;;;15.43;10.32;;;;;;;16.33;83.19;99397.03;4984371;28;20043;-79
2022/07/10 00:51:18;;;;;;;23.10;12.63;;;;;;;16.79;83.19;99462.63;4985543;28;20069;-81
2022/07/10 00:53:46;;;;;;;15.23;10.45;;;;;;;16.60;83.43;99431.84;4956069;28;20134;-82
2022/07/10 00:56:16;;;;;;;16.25;10.15;;;;;;;16.73;83.88;99452.38;4985980;28;20044;-80
2022/07/10 00:58:43;;;;;;;14.07;9.00;;;;;;;16.75;83.55;99451.41;4987771;28;20065;-79
2022/07/10 01:01:09;;;;;;;15.52;9.48;;;;;;;16.76;83.66;99457.53;4984231;28;20042;-80
2022/07/10 01:03:37;;;;;;;17.95;11.80;;;;;;;16.79;83.78;99467.88;4989443;28;20039;-79
2022/07/10 01:06:03;;;;;;;19.05;11.90;;;;;;;16.76;83.72;99462.78;4990851;28;20114;-80
2022/07/10 01:08:29;;;;;;;17.65;11.63;;;;;;;16.79;83.57;99479.25;5001200;28;20471;-78
2022/07/10 01:10:56;;;;;;;14.52;10.60;;;;;;;16.81;83.36;99469.56;4995452;28;20050;-82
2022/07/10 01:13:22;;;;;;;12.25;8.35;;;;;;;16.59;82.92;99455.56;4996482;28;20042;-79
2022/07/10 01:15:48;;;;;;;15.00;10.27;;;;;;;16.43;82.92;99471.91;5002649;28;20046;-79
2022/07/10 01:18:14;;;;;;;22.02;13.50;;;;;;;16.29;83.45;99442.69;5001447;28;20038;-81
2022/07/10 01:20:41;;;;;;;17.98;12.55;;;;;;;16.47;83.79;99462.13;4983377;28;20039;-81
2022/07/10 01:23:07;;;;;;;20.05;12.20;;;;;;;16.51;84.13;99456.69;4986197;28;20042;-79
2022/07/10 01:25:33;;;;;;;18.00;12.60;;;;;;;16.59;84.24;99468.69;4987056;28;20580;-80
2022/07/10 01:27:59;;;;;;;17.55;10.77;;;;;;;16.66;83.81;99463.13;4988089;28;20164;-79
2022/07/10 01:30:26;;;;;;;12.15;9.48;;;;;;;16.51;83.26;99472.47;4981618;28;20089;-78
2022/07/10 01:32:52;;;;;;;16.60;9.98;;;;;;;16.35;83.23;99473.97;4984511;28;20038;-80
2022/07/10 01:35:18;;;;;;;17.13;10.95;;;;;;;16.13;83.53;99452.91;4975991;28;20042;-79
2022/07/10 01:37:45;;;;;;;12.90;9.52;;;;;;;16.15;83.67;99488.69;4989351;28;20045;-81
2022/07/10 01:40:11;;;;;;;10.18;7.63;;;;;;;15.95;83.48;99471.03;4989468;28;20092;-79
2022/07/10 01:42:39;;;;;;;9.20;7.75;;;;;;;15.76;83.46;99473.47;4991731;28;20108;-80
2022/07/10 01:45:07;;;;;;;14.60;10.68;;;;;;;15.75;84.05;99482.25;4985963;28;20129;-79
2022/07/10 01:47:34;;;;;;;14.20;9.57;;;;;;;15.84;84.28;99474.03;4990167;28;20097;-80
2022/07/10 01:50:00;;;;;;;13.38;10.02;;;;;;;15.72;83.90;99459.56;4983549;28;20069;-82
2022/07/10 01:52:26;;;;;;;10.25;7.75;;;;;;;15.63;83.53;99459.91;4973195;28;20038;-80
2022/07/10 01:54:53;;;;;;;11.13;7.88;;;;;;;15.46;83.72;99456.09;4975976;28;20056;-80
2022/07/10 01:57:19;;;;;;;10.57;7.63;;;;;;;15.52;83.60;99478.66;4994260;28;20042;-78
2022/07/10 01:59:45;;;;;;;13.80;8.80;;;;;;;15.49;84.25;99478.75;4987709;28;20037;-82
2022/07/10 02:02:11;;;;;;;15.80;8.93;;;;;;;15.58;84.50;99477.56;4985778;28;20409;-79
2022/07/10 02:04:41;;;;;;;11.32;7.90;;;;;;;15.42;84.24;99448.41;4974651;28;20123;-83
2022/07/10 02:07:14;;;;;;;20.73;10.80;;;;;;;15.48;84.63;99456.06;5001545;28;20043;-81
2022/07/10 02:09:41;;;;;;;16.95;9.07;;;;;;;15.60;84.27;99481.00;4990425;28;20051;-79
2022/07/10 02:12:10;;;;;;;9.50;7.55;;;;;;;15.37;83.92;99459.06;4990514;28;20034;-81
2022/07/10 02:14:37;;;;;;;12.25;8.20;;;;;;;15.42;84.24;99466.75;4991677;28;20042;-81
2022/07/10 02:17:04;;;;;;;14.27;8.40;;;;;;;15.46;84.50;99465.75;4995682;28;20038;-81
2022/07/10 02:19:31;;;;;;;11.98;7.75;;;;;;;15.50;84.65;99475.22;4989733;28;21874;-83
2022/07/10 02:21:58;;;;;;;10.13;7.28;;;;;;;15.36;84.57;99447.69;5005970;28;20034;-80
2022/07/10 02:24:24;;;;;;;10.05;7.07;;;;;;;15.52;84.62;99458.50;4973766;28;20397;-82
2022/07/10 02:26:50;;;;;;;9.23;7.35;;;;;;;15.59;84.77;99458.31;4989814;28;20042;-80
2022/07/10 02:29:17;;;;;;;8.52;6.30;;;;;;;15.62;84.25;99459.03;4970285;28;20355;-78
2022/07/10 02:31:43;;;;;;;8.60;6.15;;;;;;;15.67;84.06;99461.50;4991375;28;20050;-80
2022/07/10 02:34:11;;;;;;;8.32;6.05;;;;;;;15.76;84.10;99468.22;4986875;28;20050;-82
2022/07/10 02:36:38;;;;;;;6.22;5.55;;;;;;;15.77;84.00;99468.16;4985508;28;20153;-81
2022/07/10 02:39:06;;;;;;;7.18;5.60;;;;;;;15.73;84.00;99455.22;4983777;28;20077;-79
2022/07/10 02:41:33;;;;;;;9.15;6.18;;;;;;;15.82;84.18;99465.34;4973666;28;20065;-79
2022/07/10 02:43:59;;;;;;;8.27;5.55;;;;;;;15.93;84.37;99446.63;4989650;28;20076;-79
2022/07/10 02:46:25;;;;;;;8.68;5.63;;;;;;;16.05;83.97;99454.06;4989673;28;20397;-80
2022/07/10 02:48:52;;;;;;;9.73;5.63;;;;;;;16.11;84.37;99445.09;4987273;28;20050;-81
2022/07/10 02:51:18;;;;;;;9.80;5.63;;;;;;;16.26;84.33;99438.41;4989009;28;21407;-80
2022/07/10 02:53:44;;;;;;;6.95;5.18;;;;;;;16.23;83.61;99402.63;4987013;28;20050;-78
2022/07/10 02:56:11;;;;;;;6.82;5.50;;;;;;;16.54;83.54;99450.50;4994352;28;20054;-80
2022/07/10 02:58:38;;;;;;;8.73;5.15;;;;;;;16.31;83.65;99414.63;4989061;28;20045;-79
2022/07/10 03:01:04;;;;;;;8.48;6.05;;;;;;;16.61;84.08;99430.94;5009389;28;20037;-80
2022/07/10 03:03:31;;;;;;;7.57;5.63;;;;;;;16.87;83.80;99444.78;4988268;28;20506;-82
2022/07/10 03:05:57;;;;;;;7.68;5.75;;;;;;;16.75;83.10;99434.78;4990895;28;20533;-77
2022/07/10 03:08:23;;;;;;;7.25;5.20;;;;;;;17.04;83.40;99466.94;4966201;28;20136;-82
2022/07/10 03:10:49;;;;;;;7.78;5.68;;;;;;;16.95;83.44;99433.97;4985748;28;20510;-82
2022/07/10 03:13:15;;;;;;;9.88;5.78;;;;;;;17.15;83.13;99460.31;4989612;28;20046;-77
2022/07/10 03:15:41;;;;;;;6.15;5.35;;;;;;;17.13;82.81;99450.78;4985599;28;20038;-79
2022/07/10 03:18:08;;;;;;;7.82;6.15;;;;;;;17.31;82.84;99464.94;4974486;28;20038;-79
2022/07/10 03:20:34;;;;;;;8.57;7.07;;;;;;;17.65;83.38;99481.91;4988811;28;20045;-80
2022/07/10 03:23:00;;;;;;;8.93;7.03;;;;;;;17.93;83.45;99491.22;4988365;28;20053;-79
2022/07/10 03:25:26;;;;;;;7.32;5.65;;;;;;;18.05;82.64;99493.34;4993151;28;20041;-80
2022/07/10 03:27:52;;;;;;;11.40;6.40;;;;;;;18.18;82.88;99485.75;4986480;28;20049;-79
2022/07/10 03:30:19;;;;;;;8.68;5.55;;;;;;;18.33;82.27;99465.75;4972577;28;20057;-78
2022/07/10 03:32:46;;;;;;;8.02;6.35;;;;;;;18.25;82.76;99441.53;4986269;28;20121;-80
2022/07/10 03:35:12;;;;;;;5.50;5.00;;;;;;;18.62;82.08;99468.81;4983849;28;20041;-81
2022/07/10 03:37:38;;;;;;;8.68;5.13;;;;;;;18.48;81.24;99461.56;4992273;28;20041;-79
2022/07/10 03:40:05;;;;;;;6.28;5.30;;;;;;;18.29;81.10;99469.44;4983947;28;20050;-79
2022/07/10 03:42:31;;;;;;;8.18;5.97;;;;;;;17.97;81.50;99421.75;4993416;28;20568;-81
2022/07/10 03:44:58;;;;;;;10.38;8.25;;;;;;;18.33;81.72;99457.84;4988363;28;20054;-82
2022/07/10 03:47:24;;;;;;;11.38;8.63;;;;;;;18.24;81.70;99423.19;4990378;28;20045;-81
2022/07/10 03:49:50;;;;;;;8.52;6.60;;;;;;;18.30;81.44;99412.38;4985558;28;20053;-80
2022/07/10 03:52:16;;;;;;;12.73;6.55;;;;;;;18.31;81.07;99406.19;4989156;28;20129;-80
2022/07/10 03:54:42;;;;;;;12.88;10.57;;;;;;;18.26;81.53;99381.84;4982500;28;20765;-80
2022/07/10 03:59:53;;;;;;;22.58;14.75;;;;;;;18.47;81.02;99387.84;4987434;28;20045;-77
2022/07/10 04:02:19;;;;;;;28.70;20.75;;;;;;;18.53;81.50;99371.75;4990736;28;20069;-77
2022/07/10 04:04:46;;;;;;;17.50;11.98;;;;;;;18.58;81.63;99361.00;4976996;28;20046;-80
2022/07/10 04:07:12;;;;;;;18.08;12.65;;;;;;;18.47;81.37;99350.97;4990681;28;20115;-80
2022/07/10 04:09:39;;;;;;;9.30;6.97;;;;;;;18.41;81.16;99352.13;4989287;28;20113;-80
2022/07/10 04:12:05;;;;;;;21.17;13.82;;;;;;;18.58;81.51;99363.63;4989997;28;20208;-80
2022/07/10 04:14:31;;;;;;;19.25;12.18;;;;;;;18.73;81.84;99364.66;4990503;28;20494;-79
2022/07/10 04:16:58;;;;;;;17.08;12.80;;;;;;;18.86;81.73;99355.22;4988860;28;20204;-77
2022/07/10 04:19:24;;;;;;;11.70;8.38;;;;;;;19.02;81.26;99378.19;4956880;28;20128;-80
2022/07/10 04:21:50;;;;;;;11.15;9.95;;;;;;;19.07;81.35;99376.19;4978718;28;20030;-78
2022/07/10 04:24:16;;;;;;;11.23;8.57;;;;;;;18.97;81.30;99338.91;4989657;28;20070;-81
2022/07/10 04:26:44;;;;;;;12.68;9.88;;;;;;;19.17;81.44;99372.13;4988340;28;20092;-80
2022/07/10 04:29:10;;;;;;;9.68;8.68;;;;;;;19.31;81.56;99367.94;4988553;28;20043;-82
2022/07/10 04:31:36;;;;;;;11.05;8.05;;;;;;;19.32;81.68;99351.16;4976207;28;20054;-80
2022/07/10 04:34:03;;;;;;;7.90;6.60;;;;;;;19.40;81.25;99341.06;4993833;28;20355;-81
2022/07/10 04:36:30;;;;;;;8.00;7.15;;;;;;;19.77;81.12;99381.31;4972231;28;20038;-78
2022/07/10 04:38:56;;;;;;;9.70;7.70;;;;;;;19.98;81.36;99389.03;4993047;28;20042;-82
2022/07/10 04:41:22;;;;;;;9.40;7.32;;;;;;;20.10;81.14;99356.69;4987471;28;20042;-78
2022/07/10 04:43:48;;;;;;;9.80;7.68;;;;;;;20.34;81.23;99334.25;4975099;28;20041;-80
2022/07/10 04:46:14;;;;;;;10.32;7.20;;;;;;;20.44;80.81;99325.72;4993601;28;20456;-79
2022/07/10 04:48:40;;;;;;;8.10;7.10;;;;;;;20.46;80.44;99325.66;4993191;28;20128;-79
2022/07/10 04:51:07;;;;;;;11.60;8.10;;;;;;;20.67;80.11;99354.41;4988025;28;20039;-81
2022/07/10 04:53:33;;;;;;;9.25;7.70;;;;;;;20.86;80.26;99347.16;4988190;28;20045;-80
2022/07/10 04:55:59;;;;;;;9.98;7.85;;;;;;;21.21;79.79;99352.13;5000259;28;20128;-81
2022/07/10 04:58:25;;;;;;;8.07;7.25;;;;;;;21.64;80.15;99353.97;5010826;28;20145;-78
2022/07/10 05:00:51;;;;;;;9.75;7.57;;;;;;;21.88;79.82;99320.75;4989926;28;20049;-80
2022/07/10 05:03:18;;;;;;;9.02;7.82;;;;;;;22.29;79.12;99364.06;4995411;28;20038;-80
2022/07/10 05:05:44;;;;;;;8.13;7.07;;;;;;;22.22;78.64;99331.84;5001795;28;20057;-79
2022/07/10 05:08:10;;;;;;;8.07;7.13;;;;;;;22.34;77.87;99381.38;5010359;28;20074;-80
2022/07/10 05:10:36;;;;;;;8.32;7.50;;;;;;;22.21;78.22;99348.69;4996953;28;20045;-78
2022/07/10 05:13:02;;;;;;;8.57;7.68;;;;;;;22.33;76.73;99368.25;4995603;28;20058;-79
2022/07/10 05:15:28;;;;;;;10.13;7.55;;;;;;;22.35;76.21;99351.28;5013500;28;20160;-79
2022/07/10 05:17:55;;;;;;;10.35;8.73;;;;;;;22.26;76.47;99334.19;5015835;28;20049;-77
2022/07/10 05:20:21;;;;;;;10.40;8.70;;;;;;;22.64;76.04;99377.72;5013706;28;20125;-77
2022/07/10 05:22:47;;;;;;;9.40;8.50;;;;;;;22.70;75.10;99364.06;5011361;28;20050;-77
2022/07/10 05:25:17;;;;;;;10.23;8.25;;;;;;;22.42;73.49;99378.22;5003772;28;20050;-79
2022/07/10 05:28:17;;;;;;;14.45;9.43;;;;;;;21.97;72.99;99352.78;4980810;28;20066;-81
2022/07/10 05:30:48;;;;;;;9.60;8.60;;;;;;;22.03;74.20;99366.59;4994838;28;20081;-83
2022/07/10 05:33:18;;;;;;;;;;;;;;;22.08;73.18;99377.75;5007126;28;20051;-78
2022/07/10 05:35:47;;;;;;;10.75;9.07;;;;;;;22.20;74.46;99374.31;5015436;28;19913;-79
2022/07/10 05:38:17;;;;;;;10.23;9.23;;;;;;;22.07;73.71;99300.06;4998538;28;20054;-79
2022/07/10 05:40:55;;;;;;;14.57;9.65;;;;;;;22.38;73.36;99347.59;5000163;28;20037;-79
2022/07/10 05:43:28;;;;;;;13.88;10.32;;;;;;;22.69;72.50;99375.63;5004255;28;20062;-79
2022/07/10 05:45:57;;;;;;;14.25;10.98;;;;;;;22.55;72.08;99373.88;5011062;28;20101;-77
2022/07/10 05:48:23;;;;;;;13.80;11.85;;;;;;;22.26;71.33;99336.81;5019363;28;20050;-79
2022/07/10 05:50:52;;;;;;;13.60;12.20;;;;;;;22.56;71.75;99353.50;5010263;28;20041;-88
2022/07/10 05:53:19;;;;;;;15.48;12.43;;;;;;;23.16;71.87;99370.72;5000942;28;20045;-82
2022/07/10 05:55:54;;;;;;;12.93;11.60;;;;;;;23.90;71.49;99335.50;5000904;28;20034;-81
2022/07/10 05:58:20;;;;;;;15.55;10.88;;;;;;;25.93;71.80;99321.25;5018024;28;20050;-81
2022/07/10 06:00:46;;;;;;;12.23;11.10;;;;;;;27.82;68.02;99348.16;4997688;28;20132;-82
2022/07/10 06:03:19;;;;;;;11.63;10.48;;;;;;;29.34;65.15;99333.56;4973543;28;20038;-81
2022/07/10 06:05:45;;;;;;;12.83;10.87;;;;;;;30.17;61.64;99328.25;4996819;28;20030;-85
2022/07/10 06:08:11;;;;;;;13.23;10.20;;;;;;;31.19;58.68;99337.84;4995131;28;20038;-81
2022/07/10 06:10:43;;;;;;;13.43;10.23;;;;;;;31.69;56.21;99322.81;4994747;28;20046;-84
2022/07/10 06:13:11;;;;;;;12.85;9.77;;;;;;;31.65;55.42;99338.44;4995079;28;20053;-83
2022/07/10 06:15:41;;;;;;;11.70;10.50;;;;;;;31.35;54.15;99327.19;4985041;28;20113;-82
2022/07/10 06:18:10;;;;;;;11.40;10.05;;;;;;;32.13;51.60;99321.78;4999793;28;20046;-84
2022/07/10 06:20:36;;;;;;;11.15;9.40;;;;;;;33.44;49.33;99344.34;4992134;28;20092;-83
2022/07/10 06:23:23;;;;;;;11.38;8.88;;;;;;;33.82;47.78;99327.53;4991951;28;20079;-82
2022/07/10 06:25:50;;;;;;;8.90;8.10;;;;;;;33.36;45.86;99312.00;4995376;28;20039;-82
2022/07/10 06:28:17;;;;;;;9.95;8.25;;;;;;;33.04;43.72;99293.06;4991032;28;20077;-80
2022/07/10 06:30:47;;;;;;;9.35;8.52;;;;;;;32.69;43.19;99310.41;4976208;28;20452;-82
2022/07/10 06:33:14;;;;;;;8.75;7.65;;;;;;;32.07;43.22;99350.22;4977013;28;20046;-83
2022/07/10 06:35:50;;;;;;;7.85;7.05;;;;;;;31.56;42.97;99331.31;4990423;28;20581;-81
2022/07/10 06:38:17;;;;;;;7.47;6.70;;;;;;;30.47;43.79;99295.81;4988509;28;20541;-81
2022/07/10 06:40:50;;;;;;;8.20;6.75;;;;;;;30.05;46.03;99332.13;4973166;28;20046;-84
2022/07/10 06:43:25;;;;;;;13.85;10.70;;;;;;;29.61;45.26;99360.41;4990234;28;20068;-82
2022/07/10 06:49:53;;;;;;;7.25;6.47;;;;;;;29.78;44.94;99332.97;4951153;28;20123;-81
2022/07/10 06:52:21;;;;;;;7.13;6.53;;;;;;;31.35;43.68;99296.81;4984664;28;20679;-82
2022/07/10 06:54:48;;;;;;;6.15;5.45;;;;;;;33.31;42.17;99299.03;4988130;28;20121;-83
2022/07/10 06:57:19;;;;;;;7.83;5.77;;;;;;;35.01;39.40;99323.66;4988305;28;20038;-84
2022/07/10 06:59:46;;;;;;;6.95;5.65;;;;;;;36.71;38.09;99320.09;4991206;28;20485;-81
2022/07/10 07:02:12;;;;;;;8.02;6.22;;;;;;;35.48;36.21;99313.56;4985110;28;20046;-84
2022/07/10 07:04:48;;;;;;;6.95;6.28;;;;;;;34.48;37.34;99340.66;4991090;28;20057;-81
2022/07/10 07:07:17;;;;;;;8.13;6.60;;;;;;;33.13;37.50;99314.59;4979212;28;20046;-83
2022/07/10 07:09:44;;;;;;;10.02;6.43;;;;;;;32.79;39.13;99354.19;4956068;28;20532;-84
2022/07/10 07:12:18;;;;;;;7.50;6.60;;;;;;;31.84;38.54;99315.00;4989441;28;20045;-83
2022/07/10 07:14:48;;;;;;;7.30;6.70;;;;;;;30.94;38.93;99341.19;4989170;28;20054;-83
2022/07/10 07:17:24;;;;;;;8.45;7.18;;;;;;;30.90;39.72;99296.84;4985399;28;20038;-84
2022/07/10 07:25:25;;;;;;;8.93;7.28;;;;;;;32.62;40.27;99325.56;4987343;28;20035;-83
2022/07/10 07:27:52;;;;;;;7.60;6.78;;;;;;;33.77;39.01;99329.91;4986553;28;20054;-84
2022/07/10 07:30:18;;;;;;;7.45;6.30;;;;;;;34.97;36.35;99335.88;4972973;28;20485;-82
2022/07/10 07:32:48;;;;;;;7.18;6.47;;;;;;;36.23;35.64;99315.25;4987124;28;20042;-80
2022/07/10 07:35:18;;;;;;;6.72;6.05;;;;;;;36.90;33.24;99330.25;4985833;28;20132;-81
2022/07/10 07:37:49;;;;;;;7.90;5.70;;;;;;;37.66;32.81;99311.50;4983699;28;20035;-82
2022/07/10 07:40:22;;;;;;;7.35;5.43;;;;;;;38.61;32.07;99318.88;4987981;28;20081;-83
2022/07/10 07:42:56;;;;;;;6.15;5.40;;;;;;;39.21;29.89;99317.97;4989474;28;20038;-82
2022/07/10 07:45:24;;;;;;;5.47;4.60;;;;;;;39.52;30.57;99285.66;4987025;28;20058;-81
2022/07/10 07:47:53;;;;;;;6.20;5.70;;;;;;;40.01;29.32;99321.47;4984437;28;20054;-81
2022/07/10 07:50:26;;;;;;;6.32;5.60;;;;;;;39.30;28.18;99297.69;4973136;28;21019;-81
2022/07/10 07:52:55;;;;;;;5.45;5.05;;;;;;;38.35;28.65;99304.19;4989529;28;20093;-84
2022/07/10 07:55:22;;;;;;;5.53;5.10;;;;;;;37.84;28.16;99329.97;4970329;28;20466;-83
2022/07/10 07:57:53;;;;;;;4.90;4.43;;;;;;;38.18;28.65;99319.22;4995131;28;20410;-82
2022/07/10 08:00:22;;;;;;;6.43;4.50;;;;;;;38.95;28.51;99319.69;4981955;28;20145;-81
2022/07/10 08:02:52;;;;;;;6.40;4.72;;;;;;;38.77;28.46;99314.88;5001302;28;20034;-83
2022/07/10 08:05:19;;;;;;;4.72;4.30;;;;;;;38.79;27.08;99284.78;4999701;28;20149;-85
2022/07/10 08:07:49;;;;;;;5.93;4.28;;;;;;;39.36;26.77;99325.91;4998058;28;20065;-87
2022/07/10 08:10:23;;;;;;;7.60;4.50;;;;;;;39.46;26.64;99304.53;4995142;28;20038;-85
2022/07/10 08:12:50;;;;;;;6.97;4.57;;;;;;;40.49;25.22;99306.50;4991920;28;20050;-86
2022/07/10 08:15:19;;;;;;;5.32;4.38;;;;;;;42.66;25.10;99312.69;5001270;28;20062;-82
2022/07/10 08:17:50;;;;;;;5.35;4.30;;;;;;;43.58;24.69;99320.47;4995603;28;20043;-83
2022/07/10 08:20:16;;;;;;;5.90;5.35;;;;;;;44.31;24.06;99322.69;4998882;28;20058;-82
2022/07/10 08:22:49;;;;;;;5.45;4.95;;;;;;;45.02;22.39;99289.25;4982135;28;20039;-84
2022/07/10 08:25:24;;;;;;;6.72;4.20;;;;;;;45.76;21.82;99297.28;4998616;28;20117;-81
2022/07/10 08:27:50;;;;;;;6.32;4.68;;;;;;;46.07;21.72;99317.66;5003805;28;20058;-79
2022/07/10 08:30:17;;;;;;;6.47;4.75;;;;;;;44.56;21.23;99316.81;4994698;28;20148;-78
2022/07/10 08:32:47;;;;;;;4.43;4.13;;;;;;;43.12;21.68;99312.94;4990798;28;20140;-79
2022/07/10 08:36:18;;;;;;;4.32;3.92;;;;;;;41.47;21.92;99320.47;4979194;28;20085;-79
2022/07/10 08:39:12;;;;;;;6.43;4.25;;;;;;;39.26;23.20;99301.84;4942630;28;20403;-79
2022/07/10 08:44:47;;;;;;;5.13;4.63;;;;;;;37.73;25.94;99296.09;4976064;28;20124;-81
2022/07/10 08:47:14;;;;;;;;;;;;;;;38.08;27.09;99300.63;4976037;28;20034;-79
2022/07/10 08:49:46;;;;;;;5.82;4.22;;;;;;;39.61;24.66;99306.16;4987863;28;19921;-79
2022/07/10 08:52:19;;;;;;;7.07;4.07;;;;;;;40.60;25.16;99296.75;4987620;28;20103;-79
2022/07/10 08:54:48;;;;;;;4.50;3.80;;;;;;;42.50;24.37;99288.81;4990243;28;20046;-79
2022/07/10 08:57:20;;;;;;;5.22;3.70;;;;;;;43.99;23.41;99298.53;4991779;28;20077;-81
2022/07/10 08:59:46;;;;;;;3.58;3.28;;;;;;;44.38;22.42;99294.03;4987341;28;20042;-79
2022/07/10 09:02:12;;;;;;;4.65;3.28;;;;;;;43.76;21.51;99300.31;4991442;28;20070;-80
2022/07/10 09:04:38;;;;;;;4.07;3.38;;;;;;;43.93;20.80;99303.91;4999957;28;20058;-78
2022/07/10 09:07:14;;;;;;;3.75;3.45;;;;;;;43.58;20.77;99302.13;4991449;28;20050;-81
2022/07/10 09:09:53;;;;;;;3.80;3.50;;;;;;;43.87;20.14;99288.47;4988545;28;20053;-81
2022/07/10 09:12:21;;;;;;;;;;;;;;;43.88;20.69;99297.50;4986946;28;20108;-82
2022/07/10 09:14:49;;;;;;;4.60;3.47;;;;;;;44.17;20.42;99301.06;4991909;28;20588;-80
2022/07/10 09:17:16;;;;;;;4.45;3.53;;;;;;;43.12;19.89;99271.91;4976413;28;20045;-81
2022/07/10 09:19:42;;;;;;;6.18;3.92;;;;;;;43.35;20.47;99286.63;4988046;28;20053;-81
2022/07/10 09:22:15;;;;;;;4.80;3.97;;;;;;;43.61;19.31;99287.13;4989856;28;20128;-81
2022/07/10 09:24:50;;;;;;;9.05;4.20;;;;;;;42.99;20.16;99264.81;4991385;28;20131;-81
2022/07/10 09:27:19;;;;;;;4.10;3.63;;;;;;;42.62;20.70;99262.28;4992355;28;21556;-80
2022/07/10 09:29:55;;;;;;;5.38;4.07;;;;;;;42.81;21.23;99278.63;4980037;28;20042;-81
2022/07/10 09:32:24;;;;;;;5.35;3.85;;;;;;;42.25;22.31;99267.94;4987725;28;20046;-80
2022/07/10 09:37:48;;;;;;;4.63;3.88;;;;;;;40.24;22.77;99244.66;4990026;28;20043;-83
2022/07/10 09:40:15;;;;;;;4.60;3.75;;;;;;;40.70;22.55;99255.38;4990788;28;20433;-78
2022/07/10 09:42:47;;;;;;;3.88;3.40;;;;;;;41.43;22.66;99266.56;4985330;28;20048;-80
2022/07/10 09:45:18;;;;;;;6.43;4.05;;;;;;;41.45;22.16;99239.88;4983653;28;20038;-81
2022/07/10 09:48:00;;;;;;;6.30;4.50;;;;;;;42.55;22.12;99267.88;4984349;28;20045;-80
2022/07/10 09:50:32;;;;;;;4.47;3.08;;;;;;;42.16;21.00;99253.81;4971052;28;20038;-83
2022/07/10 09:53:04;;;;;;;3.67;3.17;;;;;;;41.96;21.52;99257.69;4987396;28;20038;-82
2022/07/10 09:55:34;;;;;;;5.53;3.53;;;;;;;42.74;21.27;99265.88;4988823;28;20366;-82
2022/07/10 09:58:08;;;;;;;8.35;5.38;;;;;;;43.00;20.66;99274.66;4991565;28;20085;-81
2022/07/10 10:00:46;;;;;;;4.18;3.28;;;;;;;42.32;19.95;99240.50;4996421;28;20120;-79
2022/07/10 10:03:15;;;;;;;3.45;3.15;;;;;;;42.59;19.67;99239.00;4995064;28;20049;-81
2022/07/10 10:06:17;;;;;;;5.30;2.80;;;;;;;43.21;19.02;99261.41;4994498;28;20061;-81
2022/07/10 10:09:02;;;;;;;3.75;3.10;;;;;;;43.05;19.07;99263.00;4927846;28;20128;-81
2022/07/10 10:11:32;;;;;;;4.93;3.63;;;;;;;42.97;19.33;99260.63;4986738;28;20043;-81
2022/07/10 10:14:07;;;;;;;5.80;3.70;;;;;;;43.04;19.98;99243.00;4998512;28;20049;-80
2022/07/10 10:16:44;;;;;;;4.60;3.00;;;;;;;42.26;19.92;99251.31;4996004;23;20067;-82
2022/07/10 10:22:17;;;;;;;2.92;2.72;;;;;;;41.44;20.32;99238.19;4960880;28;20503;-87
2022/07/10 10:24:50;;;;;;;5.78;3.05;;;;;;;41.71;20.69;99241.44;4955235;29;20114;-84
2022/07/10 10:27:17;;;;;;;3.63;3.05;;;;;;;41.72;19.86;99250.44;4957283;28;20099;-83
2022/07/10 10:29:53;;;;;;;5.72;3.00;;;;;;;41.49;19.85;99222.78;4955812;28;20043;-83
2022/07/10 10:32:19;;;;;;;3.15;2.90;;;;;;;40.13;20.21;99239.91;4967925;28;20053;-81
2022/07/10 10:34:56;;;;;;;7.78;3.45;;;;;;;38.56;21.77;99218.13;4958684;28;20035;-86
2022/07/10 10:37:45;;;;;;;4.55;3.47;;;;;;;37.13;23.81;99214.47;4956976;28;20668;-83
2022/07/10 10:40:36;;;;;;;5.78;3.40;;;;;;;36.52;24.94;99203.28;4955350;28;20055;-80
2022/07/10 10:43:23;;;;;;;6.40;4.20;;;;;;;36.26;26.59;99225.50;4947043;28;20039;-80
2022/07/10 10:46:41;;;;;;;5.88;3.17;;;;;;;35.64;26.16;99231.34;4955200;28;20043;-83
2022/07/10 10:49:08;;;;;;;3.80;3.40;;;;;;;35.11;26.63;99228.78;4908772;29;20612;-81
2022/07/10 10:52:10;;;;;;;4.82;3.35;;;;;;;34.43;27.52;99229.66;4963405;28;20042;-81
2022/07/10 10:55:07;;;;;;;6.22;3.50;;;;;;;33.77;27.95;99235.50;4919396;29;20074;-82
2022/07/10 10:57:51;;;;;;;3.92;3.30;;;;;;;33.13;28.79;99223.00;4967478;28;20055;-82
2022/07/10 11:00:37;;;;;;;;;;;;;;;33.21;29.00;99236.44;4963975;28;20142;-79
2022/07/10 11:03:24;;;;;;;3.97;3.28;;;;;;;32.88;29.68;99239.22;4994127;28;20024;-80
2022/07/10 11:05:54;;;;;;;4.07;3.15;;;;;;;32.55;30.30;99223.13;4969142;28;20075;-81
2022/07/10 11:08:40;;;;;;;4.85;3.20;;;;;;;32.30;31.00;99217.75;4939105;29;20145;-80
2022/07/10 11:11:57;;;;;;;6.25;3.80;;;;;;;32.59;30.99;99224.44;4963214;28;20050;-80
2022/07/10 11:14:27;;;;;;;5.47;4.10;;;;;;;32.69;31.50;99224.25;4902763;29;20048;-78
2022/07/10 11:16:57;;;;;;;5.13;3.38;;;;;;;32.73;30.86;99230.97;4890798;29;20060;-84
2022/07/10 11:19:29;;;;;;;4.70;3.70;;;;;;;32.47;31.47;99232.03;4919614;29;20051;-80
2022/07/10 11:22:10;;;;;;;4.03;3.65;;;;;;;32.60;31.97;99231.50;4937558;29;20090;-79
2022/07/10 11:25:01;;;;;;;6.43;3.40;;;;;;;32.56;31.70;99214.00;4949628;29;20039;-79
2022/07/10 11:28:18;;;;;;;4.55;3.28;;;;;;;32.80;32.09;99225.75;4930010;29;20097;-79
2022/07/10 11:30:51;;;;;;;3.87;3.57;;;;;;;32.56;31.97;99219.38;4940546;29;20102;-80
2022/07/10 11:33:48;;;;;;;6.03;3.70;;;;;;;32.02;32.77;99149.94;4943855;29;20043;-80
2022/07/10 11:36:31;;;;;;;5.22;3.83;;;;;;;32.68;33.10;99217.19;4930189;29;20052;-79
2022/07/10 11:39:27;;;;;;;10.43;3.88;;;;;;;32.55;32.06;99175.50;4925844;29;20087;-80
2022/07/10 11:42:09;;;;;;;5.22;3.00;;;;;;;32.67;32.70;99220.88;4954528;28;20486;-78
2022/07/10 11:44:41;;;;;;;4.85;2.72;;;;;;;31.90;31.91;99149.44;4943400;28;20100;-80
2022/07/10 11:47:21;;;;;;;7.07;3.22;;;;;;;32.08;32.17;99211.16;4956450;28;20114;-81
2022/07/10 11:49:47;;;;;;;3.85;3.28;;;;;;;31.79;31.80;99223.22;4946507;28;20083;-79
2022/07/10 11:52:28;;;;;;;3.33;3.03;;;;;;;31.49;32.20;99186.00;4951040;28;20051;-80
2022/07/10 11:55:19;;;;;;;5.93;3.50;;;;;;;31.70;32.23;99211.56;4921516;29;20058;-79
2022/07/10 11:57:48;;;;;;;7.18;3.08;;;;;;;31.69;32.49;99205.38;4938457;29;20035;-78
2022/07/10 12:00:33;;;;;;;6.60;3.47;;;;;;;31.66;33.50;99192.25;4958663;28;20041;-77
2022/07/10 12:03:16;;;;;;;4.47;3.35;;;;;;;31.78;33.64;99198.19;4948225;29;20098;-79
2022/07/10 12:05:43;;;;;;;8.70;3.60;;;;;;;31.65;33.35;99195.13;4964584;28;20050;-80
2022/07/10 12:08:09;;;;;;;7.43;3.60;;;;;;;31.39;33.42;99177.25;4963267;29;20043;-77